Terminal Aerodrome Forecast
Issued by NWS Lake Charles, LA

Home | Current Version | Previous Version | Text Only | Print | Product List | Glossary On
Versions: 1 2 3 4 5 6 7 8 9 10 11 12 13 14 15 16 17 18 19 20 21
000
FTUS44 KLCH 231120
TAFBPT
TAF
KBPT 231120Z 2312/2412 33005KT P6SM SCT007 OVC015
     FM231500 32007KT P6SM BKN025
     FM231800 33008KT P6SM BKN050
     FM232200 31007KT P6SM OVC025 PROB30 2322/2404 4SM -TSRA
      BKN015CB=

USA.gov is the U.S. government's official web portal to all federal, state and local government web resources and services.